Time;durP1;ratioP1;P1;durP2;ratioP2;P2;SDS_P1;SDS_P2;PMS_P1;PMS_P2;Temp;Humidity;BMP_temperature;BMP_pressure;BME280_temperature;BME280_humidity;BME280_pressure;Samples;Min_cycle;Max_cycle;Signal;HPM_P1;HPM_P2
2021/07/23 00:01:51;;;;;;;22.77;13.07;;;16.40;99.90;;;;;;6115610;23;20088;-92
2021/07/23 00:04:46;;;;;;;19.88;13.45;;;16.40;99.90;;;;;;6116913;23;20037;-90
2021/07/23 00:07:34;;;;;;;22.55;13.70;;;16.30;99.90;;;;;;6135080;23;20026;-92
2021/07/23 00:10:41;;;;;;;17.50;12.30;;;16.30;99.90;;;;;;6137855;23;20025;-91
2021/07/23 00:13:31;;;;;;;19.88;13.25;;;16.10;99.90;;;;;;6156731;23;20026;-91
2021/07/23 00:16:28;;;;;;;17.83;13.40;;;16.10;99.90;;;;;;6137175;23;20096;-92
2021/07/23 00:19:15;;;;;;;20.10;13.23;;;15.90;99.90;;;;;;6134231;23;20112;-91
2021/07/23 00:22:10;;;;;;;18.73;14.00;;;15.90;99.90;;;;;;6181764;23;20052;-91
2021/07/23 00:25:00;;;;;;;21.42;14.23;;;15.90;99.90;;;;;;6166540;23;20119;-92
2021/07/23 00:27:48;;;;;;;23.58;15.13;;;15.90;99.90;;;;;;6186689;23;20108;-92
2021/07/23 00:30:37;;;;;;;19.27;13.30;;;15.90;99.90;;;;;;6190933;23;20017;-91
2021/07/23 00:33:27;;;;;;;24.10;14.20;;;15.90;99.90;;;;;;6186698;23;20028;-91
2021/07/23 00:36:18;;;;;;;21.25;13.45;;;15.90;99.90;;;;;;6167582;23;20259;-91
2021/07/23 00:39:08;;;;;;;21.98;15.05;;;15.80;99.90;;;;;;6184933;23;20029;-91
2021/07/23 00:41:57;;;;;;;23.55;15.02;;;15.80;99.90;;;;;;6184696;23;20368;-92
2021/07/23 00:44:47;;;;;;;22.95;14.77;;;15.80;99.90;;;;;;6144287;23;20029;-90
2021/07/23 00:47:45;;;;;;;24.30;14.98;;;15.80;99.90;;;;;;6184778;23;20025;-91
2021/07/23 00:50:36;;;;;;;26.05;16.02;;;15.80;99.90;;;;;;6184950;23;20025;-91
2021/07/23 00:53:34;;;;;;;24.15;15.73;;;15.70;99.90;;;;;;6184480;23;20017;-91
2021/07/23 00:56:22;;;;;;;17.77;13.20;;;15.70;99.90;;;;;;6184306;23;20037;-92
2021/07/23 00:59:16;;;;;;;20.05;14.40;;;15.70;99.90;;;;;;6185849;23;20111;-91
2021/07/23 01:02:04;;;;;;;22.30;14.38;;;15.70;99.90;;;;;;6184725;23;20025;-91
2021/07/23 01:04:54;;;;;;;21.38;14.45;;;15.70;99.90;;;;;;6185703;23;20079;-90
2021/07/23 01:07:41;;;;;;;21.40;14.45;;;15.70;99.90;;;;;;6187301;23;20036;-91
2021/07/23 01:10:29;;;;;;;25.58;14.10;;;15.60;99.90;;;;;;6162942;23;20039;-90
2021/07/23 01:13:30;;;;;;;21.40;14.35;;;15.70;99.90;;;;;;6184101;23;20021;-92
2021/07/23 01:16:25;;;;;;;21.05;13.98;;;15.70;99.90;;;;;;6166589;23;20056;-90
2021/07/23 01:19:15;;;;;;;19.30;14.13;;;15.70;99.90;;;;;;6144404;23;20099;-91
2021/07/23 01:22:09;;;;;;;18.70;13.43;;;15.70;99.90;;;;;;6185731;23;20039;-92
2021/07/23 01:24:57;;;;;;;17.77;12.93;;;15.70;99.90;;;;;;6185797;23;20032;-89
2021/07/23 01:27:50;;;;;;;21.95;14.20;;;15.60;99.90;;;;;;6184894;23;20036;-89
2021/07/23 01:30:43;;;;;;;20.88;14.23;;;15.60;99.90;;;;;;6185639;23;20056;-89
2021/07/23 01:33:35;;;;;;;21.20;13.60;;;15.60;99.90;;;;;;6184118;23;20130;-89
2021/07/23 01:36:25;;;;;;;23.63;14.70;;;15.60;99.90;;;;;;6163845;23;20309;-91
2021/07/23 01:39:16;;;;;;;19.35;13.60;;;15.50;99.90;;;;;;6185344;23;20389;-92
2021/07/23 01:42:07;;;;;;;20.63;13.55;;;15.50;99.90;;;;;;6187035;23;20025;-91
2021/07/23 01:44:56;;;;;;;22.05;14.65;;;15.50;99.90;;;;;;6187147;23;20032;-91
2021/07/23 01:47:55;;;;;;;22.52;13.82;;;15.50;99.90;;;;;;6187131;23;20021;-91
2021/07/23 01:50:45;;;;;;;21.00;13.05;;;15.50;99.90;;;;;;6185155;23;20029;-91
2021/07/23 01:53:32;;;;;;;21.25;14.10;;;15.50;99.90;;;;;;6167626;23;20044;-91
2021/07/23 01:56:24;;;;;;;20.57;14.20;;;15.50;99.90;;;;;;6191009;23;20036;-91
2021/07/23 01:59:15;;;;;;;21.38;13.82;;;15.50;99.90;;;;;;6149073;23;20025;-91
2021/07/23 02:02:07;;;;;;;22.10;14.50;;;15.40;99.90;;;;;;6185941;23;20025;-91
2021/07/23 02:04:59;;;;;;;21.00;13.93;;;15.30;99.90;;;;;;6187497;23;20480;-91
2021/07/23 02:07:49;;;;;;;22.65;14.45;;;15.30;99.90;;;;;;6186190;23;20036;-91
2021/07/23 02:10:37;;;;;;;24.05;15.15;;;15.20;99.90;;;;;;6189255;23;20035;-92
2021/07/23 02:13:27;;;;;;;25.10;15.57;;;15.20;99.90;;;;;;6196611;23;20025;-91
2021/07/23 02:16:15;;;;;;;23.63;14.65;;;15.10;99.90;;;;;;6204901;23;20029;-91
2021/07/23 02:19:03;;;;;;;22.38;14.50;;;15.00;99.90;;;;;;6193465;23;20021;-91
2021/07/23 02:21:55;;;;;;;23.08;14.93;;;15.00;99.90;;;;;;6185457;23;20095;-91
2021/07/23 02:24:42;;;;;;;21.27;15.43;;;14.90;99.90;;;;;;6145094;23;20096;-91
2021/07/23 02:27:37;;;;;;;21.55;15.18;;;14.90;99.90;;;;;;6185720;23;20118;-91
2021/07/23 02:30:28;;;;;;;21.13;14.23;;;14.90;99.90;;;;;;6184140;23;20048;-90
2021/07/23 02:33:19;;;;;;;24.95;16.08;;;14.90;99.90;;;;;;6184696;23;20031;-91
2021/07/23 02:36:11;;;;;;;23.20;14.65;;;14.90;99.90;;;;;;6187716;23;20053;-90
2021/07/23 02:39:08;;;;;;;21.98;15.27;;;14.90;99.90;;;;;;6183814;23;20021;-91
2021/07/23 02:42:16;;;;;;;26.27;15.60;;;14.90;99.90;;;;;;6081976;23;20101;-92
2021/07/23 02:45:06;;;;;;;26.50;16.08;;;14.80;99.90;;;;;;6076732;23;20113;-91
2021/07/23 02:48:03;;;;;;;26.05;16.45;;;14.80;99.90;;;;;;6095984;23;20026;-90
2021/07/23 02:50:55;;;;;;;22.75;15.32;;;14.80;99.90;;;;;;6077226;23;20034;-92
2021/07/23 02:53:52;;;;;;;23.98;15.65;;;14.70;99.90;;;;;;6078068;23;20386;-91
2021/07/23 02:56:39;;;;;;;26.25;15.73;;;14.60;99.90;;;;;;6096917;23;20323;-91
2021/07/23 02:59:41;;;;;;;23.15;16.08;;;14.60;99.90;;;;;;6135698;23;20033;-91
2021/07/23 03:02:51;;;;;;;24.40;16.00;;;14.50;99.90;;;;;;6181290;23;20025;-90
2021/07/23 03:05:52;;;;;;;22.80;16.48;;;14.40;99.90;;;;;;6186080;23;20025;-91
2021/07/23 03:08:40;;;;;;;26.08;17.60;;;14.30;99.90;;;;;;6164947;23;20021;-91
2021/07/23 03:11:33;;;;;;;26.08;16.63;;;14.30;99.90;;;;;;6166609;23;20103;-92
2021/07/23 03:14:32;;;;;;;27.60;15.88;;;14.30;99.90;;;;;;6186469;23;20052;-92
2021/07/23 03:17:40;;;;;;;23.30;15.57;;;14.20;99.90;;;;;;6173312;23;20024;-91
2021/07/23 03:20:27;;;;;;;24.92;16.40;;;14.20;99.90;;;;;;6172244;23;20033;-93
2021/07/23 03:23:28;;;;;;;27.35;16.60;;;14.20;99.90;;;;;;6197670;23;20013;-91
2021/07/23 03:26:15;;;;;;;24.85;16.08;;;14.10;99.90;;;;;;6198858;23;20096;-92
2021/07/23 03:29:06;;;;;;;24.33;16.25;;;14.10;99.90;;;;;;6147395;23;20021;-93
2021/07/23 03:31:56;;;;;;;23.20;16.00;;;14.10;99.90;;;;;;6165665;23;20075;-90
2021/07/23 03:34:45;;;;;;;26.23;16.98;;;14.10;99.90;;;;;;6163563;23;20070;-91
2021/07/23 03:37:36;;;;;;;28.88;16.88;;;14.10;99.90;;;;;;6184594;23;20025;-90
2021/07/23 03:40:24;;;;;;;24.63;16.70;;;14.10;99.90;;;;;;6196319;23;20385;-90
2021/07/23 03:43:15;;;;;;;24.00;16.08;;;14.00;99.90;;;;;;6184179;23;20029;-92
2021/07/23 03:46:04;;;;;;;24.45;16.73;;;14.00;99.90;;;;;;6167191;23;20037;-90
2021/07/23 03:48:53;;;;;;;24.35;17.25;;;13.90;99.90;;;;;;6186043;23;20048;-89
2021/07/23 03:51:50;;;;;;;22.73;16.05;;;13.80;99.90;;;;;;6188417;23;20036;-91
2021/07/23 03:54:38;;;;;;;28.33;18.13;;;13.70;99.90;;;;;;6186876;23;20025;-89
2021/07/23 03:57:28;;;;;;;25.50;17.63;;;13.70;99.90;;;;;;6168745;23;20029;-91
2021/07/23 04:00:17;;;;;;;25.42;17.38;;;13.80;99.90;;;;;;6165272;23;20033;-91
2021/07/23 04:03:06;;;;;;;28.45;17.10;;;13.80;99.90;;;;;;6146317;23;20025;-90
2021/07/23 04:05:56;;;;;;;30.52;17.50;;;13.70;99.90;;;;;;6164975;23;20025;-92
2021/07/23 04:08:46;;;;;;;27.58;17.83;;;13.70;99.90;;;;;;6169295;23;20032;-91
2021/07/23 04:11:51;;;;;;;27.60;18.60;;;13.70;99.90;;;;;;6152645;23;20049;-91
2021/07/23 04:14:40;;;;;;;26.38;18.42;;;13.80;99.90;;;;;;6153189;23;20025;-90
2021/07/23 04:17:35;;;;;;;28.15;17.35;;;13.80;99.90;;;;;;6183458;23;20080;-90
2021/07/23 04:20:25;;;;;;;28.75;17.02;;;13.80;99.90;;;;;;6184629;23;20025;-90
2021/07/23 04:23:12;;;;;;;24.67;17.05;;;13.80;99.90;;;;;;6184670;23;20029;-91
2021/07/23 04:26:00;;;;;;;29.67;17.48;;;13.80;99.90;;;;;;6163812;23;20371;-90
2021/07/23 04:28:54;;;;;;;28.67;18.30;;;13.70;99.90;;;;;;6185778;23;20025;-90
2021/07/23 04:31:42;;;;;;;29.02;18.15;;;13.70;99.90;;;;;;6184534;23;20237;-90
2021/07/23 04:34:29;;;;;;;24.13;16.48;;;13.70;99.90;;;;;;6188002;23;20293;-89
2021/07/23 04:50:16;;;;;;;22.25;15.23;;;14.10;99.90;;;;;;6102423;23;20020;-91
2021/07/23 04:53:19;;;;;;;26.15;14.82;;;14.20;99.90;;;;;;6183191;23;20309;-89
2021/07/23 04:56:31;;;;;;;22.92;14.82;;;14.20;99.90;;;;;;6164643;23;20032;-89
2021/07/23 04:59:21;;;;;;;23.60;15.57;;;14.30;99.90;;;;;;6164798;23;20048;-91
2021/07/23 05:02:12;;;;;;;21.30;14.82;;;14.50;99.90;;;;;;6189593;23;20025;-91
2021/07/23 05:31:23;;;;;;;41.10;24.02;;;15.30;99.90;;;;;;5813220;24;20072;-92
2021/07/23 05:34:56;;;;;;;30.35;19.40;;;15.30;99.90;;;;;;5945869;24;20023;-92
2021/07/23 05:38:50;;;;;;;34.80;19.60;;;15.40;99.90;;;;;;5948051;24;20057;-93
2021/07/23 05:46:26;;;;;;;23.77;17.23;;;15.70;99.90;;;;;;6019245;23;20020;-93
2021/07/23 05:58:35;;;;;;;;;;;;;;;;;;;;;
2021/07/23 06:01:38;;;;;;;21.08;14.82;;;16.50;99.90;;;;;;6046357;23;20482;-92
2021/07/23 06:04:31;;;;;;;20.80;13.20;;;16.70;99.90;;;;;;6056595;23;20019;-91
2021/07/23 06:07:28;;;;;;;20.40;13.30;;;16.80;99.90;;;;;;6048434;23;20125;-93
2021/07/23 06:10:15;;;;;;;21.10;13.57;;;17.00;99.90;;;;;;6051220;23;20097;-93
2021/07/23 06:13:07;;;;;;;17.85;12.50;;;17.30;99.90;;;;;;6043507;23;20055;-93
2021/07/23 06:15:57;;;;;;;18.83;12.60;;;17.50;99.90;;;;;;6044963;23;20155;-93
2021/07/23 06:18:44;;;;;;;19.17;12.43;;;17.70;99.90;;;;;;6048258;23;20075;-93
2021/07/23 06:21:31;;;;;;;17.88;13.00;;;18.00;99.90;;;;;;6044660;23;20102;-93
2021/07/23 06:24:21;;;;;;;16.42;11.80;;;18.40;99.90;;;;;;6057385;23;20101;-93
2021/07/23 06:27:19;;;;;;;21.00;12.85;;;18.90;99.90;;;;;;6069943;23;20031;-95
2021/07/23 06:30:11;;;;;;;18.10;11.98;;;19.10;99.90;;;;;;6071102;23;20030;-91
2021/07/23 06:33:01;;;;;;;22.33;12.35;;;19.60;99.90;;;;;;6052991;23;20026;-94
2021/07/23 06:35:48;;;;;;;17.73;12.60;;;20.00;99.90;;;;;;6148250;23;20025;-92
2021/07/23 06:38:36;;;;;;;16.83;12.27;;;20.30;99.90;;;;;;6185719;23;20029;-92
2021/07/23 06:41:23;;;;;;;20.02;11.85;;;20.30;99.90;;;;;;6167448;23;20036;-91
2021/07/23 06:44:12;;;;;;;16.23;11.48;;;20.60;99.90;;;;;;6190115;23;20131;-90
2021/07/23 06:47:00;;;;;;;14.95;11.32;;;21.10;99.90;;;;;;6165923;23;20025;-91
2021/07/23 06:49:56;;;;;;;18.67;12.43;;;21.40;99.90;;;;;;6186604;23;20337;-91
2021/07/23 06:52:46;;;;;;;18.23;12.35;;;21.60;99.90;;;;;;6183630;23;20133;-92
2021/07/23 06:55:34;;;;;;;18.40;12.00;;;22.00;99.90;;;;;;6185496;23;20098;-91
2021/07/23 06:58:23;;;;;;;16.98;11.85;;;22.50;99.90;;;;;;6185409;23;20466;-94
2021/07/23 07:01:12;;;;;;;16.88;11.68;;;22.80;99.90;;;;;;6164429;23;20081;-91
2021/07/23 07:04:03;;;;;;;20.45;11.88;;;23.20;99.90;;;;;;6186064;23;20091;-91
2021/07/23 07:06:58;;;;;;;13.95;10.73;;;23.00;98.80;;;;;;6185428;23;20432;-91
2021/07/23 07:09:45;;;;;;;13.57;11.88;;;23.30;99.70;;;;;;6184598;23;20080;-90
2021/07/23 07:12:35;;;;;;;20.13;11.55;;;23.60;99.90;;;;;;6187099;23;20021;-91
2021/07/23 07:15:22;;;;;;;14.68;10.43;;;24.00;98.40;;;;;;6187590;23;20062;-91
2021/07/23 07:18:10;;;;;;;18.25;10.55;;;24.30;99.90;;;;;;6189744;23;20047;-92
2021/07/23 07:21:02;;;;;;;17.95;11.00;;;24.70;99.20;;;;;;6183727;23;20158;-92
2021/07/23 07:23:52;;;;;;;19.58;10.65;;;25.20;95.50;;;;;;6161882;23;20037;-90
2021/07/23 07:26:39;;;;;;;21.77;10.85;;;25.20;94.10;;;;;;6164857;23;20035;-91
2021/07/23 07:29:27;;;;;;;14.65;10.65;;;25.70;94.00;;;;;;6185401;23;20025;-90
2021/07/23 07:32:17;;;;;;;12.98;10.32;;;25.80;88.90;;;;;;6185826;23;20124;-90
2021/07/23 07:35:05;;;;;;;15.05;10.90;;;26.20;89.90;;;;;;6185310;23;20044;-91
2021/07/23 07:37:55;;;;;;;13.55;10.85;;;26.20;86.00;;;;;;6185220;23;20047;-90
2021/07/23 07:40:42;;;;;;;11.93;9.30;;;26.30;83.30;;;;;;6184457;23;20324;-92
2021/07/23 07:43:29;;;;;;;14.63;10.40;;;26.20;83.50;;;;;;6185897;23;20060;-91
2021/07/23 07:46:16;;;;;;;16.80;10.70;;;26.40;80.90;;;;;;6183719;23;20091;-92
2021/07/23 07:49:06;;;;;;;12.43;10.88;;;26.90;80.10;;;;;;6192673;23;20028;-90
2021/07/23 07:51:55;;;;;;;14.48;11.57;;;26.80;78.40;;;;;;6219910;23;20071;-92
2021/07/23 07:54:49;;;;;;;21.75;12.35;;;26.80;75.20;;;;;;6196634;23;20447;-91
2021/07/23 07:57:42;;;;;;;14.38;11.30;;;26.30;75.40;;;;;;6215009;23;20052;-89
2021/07/23 08:00:31;;;;;;;15.13;11.45;;;26.10;81.70;;;;;;6192080;23;20309;-90
2021/07/23 08:03:19;;;;;;;15.73;11.43;;;26.30;78.50;;;;;;6191628;23;20065;-89
2021/07/23 08:06:19;;;;;;;14.57;10.82;;;26.50;75.20;;;;;;6218211;23;20028;-89
2021/07/23 08:09:13;;;;;;;;;;;26.60;78.40;;;;;;6216556;23;20040;-91
2021/07/23 08:12:03;;;;;;;12.53;10.13;;;26.90;77.80;;;;;;6214782;23;19923;-92
2021/07/23 08:14:51;;;;;;;17.10;11.50;;;26.40;77.30;;;;;;6194542;23;20041;-92
2021/07/23 08:17:39;;;;;;;17.00;11.15;;;26.70;77.80;;;;;;6213379;23;20055;-91
2021/07/23 08:20:32;;;;;;;13.90;11.07;;;26.90;75.50;;;;;;6216684;23;20028;-92
2021/07/23 08:23:20;;;;;;;14.90;11.23;;;27.20;73.20;;;;;;6193583;23;20032;-90
2021/07/23 08:26:09;;;;;;;14.13;10.27;;;27.90;70.50;;;;;;6205370;23;20035;-88
2021/07/23 08:28:56;;;;;;;15.38;10.50;;;28.30;73.80;;;;;;6234692;23;20029;-90
2021/07/23 08:31:44;;;;;;;13.90;10.88;;;28.40;69.30;;;;;;6221839;23;20033;-90
2021/07/23 08:34:31;;;;;;;13.48;10.25;;;28.00;66.80;;;;;;6203906;23;20028;-89
2021/07/23 08:37:18;;;;;;;12.95;9.95;;;28.30;70.10;;;;;;6224974;23;20098;-91
2021/07/23 08:40:07;;;;;;;12.25;9.57;;;28.70;66.10;;;;;;6180489;23;20031;-90
2021/07/23 08:42:54;;;;;;;14.43;10.48;;;29.10;64.80;;;;;;6195607;23;20040;-90
2021/07/23 08:45:47;;;;;;;14.13;10.13;;;29.10;63.10;;;;;;6196514;23;20116;-90
2021/07/23 08:48:34;;;;;;;15.65;9.98;;;28.90;63.40;;;;;;6185907;23;20123;-90
2021/07/23 08:51:22;;;;;;;14.38;10.07;;;28.90;68.40;;;;;;6186310;23;20028;-91
2021/07/23 08:54:14;;;;;;;13.15;9.20;;;29.40;64.40;;;;;;6185512;23;20096;-91
2021/07/23 08:57:08;;;;;;;13.02;9.02;;;29.40;62.10;;;;;;6167473;23;20040;-91
2021/07/23 09:00:08;;;;;;;;;;;;;;;;;;;;;
2021/07/23 09:03:17;;;;;;;12.95;9.23;;;29.70;58.30;;;;;;6188518;23;20029;-91
2021/07/23 09:06:30;;;;;;;12.55;9.63;;;29.20;59.10;;;;;;6191770;23;20083;-92
2021/07/23 09:09:20;;;;;;;10.48;9.32;;;28.70;63.60;;;;;;6191736;23;20123;-91
2021/07/23 09:12:22;;;;;;;12.02;8.77;;;29.30;61.60;;;;;;6189760;23;20033;-92
2021/07/23 09:15:18;;;;;;;14.40;9.13;;;30.20;57.50;;;;;;6188259;23;20401;-89
2021/07/23 09:18:23;;;;;;;12.85;9.68;;;30.60;55.00;;;;;;6187115;23;20133;-87
2021/07/23 09:21:20;;;;;;;9.93;8.55;;;30.10;54.70;;;;;;6182387;23;20040;-89
2021/07/23 09:24:09;;;;;;;8.52;7.40;;;30.60;55.30;;;;;;6184615;23;20025;-89
2021/07/23 09:26:57;;;;;;;13.60;8.57;;;31.40;53.30;;;;;;6184205;23;20044;-89
2021/07/23 09:29:53;;;;;;;9.57;7.97;;;31.60;52.80;;;;;;6186158;23;20036;-84
2021/07/23 09:32:40;;;;;;;11.82;8.43;;;32.10;51.90;;;;;;6186207;23;20084;-91
2021/07/23 09:35:59;;;;;;;13.68;8.38;;;32.10;51.70;;;;;;6185697;23;20155;-92
2021/07/23 09:38:48;;;;;;;13.15;8.38;;;32.70;51.50;;;;;;6184183;23;20025;-91
2021/07/23 09:41:36;;;;;;;8.93;7.80;;;33.50;47.80;;;;;;6188784;22;20036;-91
2021/07/23 09:44:26;;;;;;;10.15;8.15;;;33.90;49.50;;;;;;6184834;23;20381;-92
2021/07/23 09:47:24;;;;;;;11.80;8.50;;;33.70;48.40;;;;;;6187131;23;20021;-91
2021/07/23 09:50:12;;;;;;;10.90;8.25;;;33.30;48.70;;;;;;6142486;23;20025;-87
2021/07/23 09:53:01;;;;;;;12.30;7.78;;;33.60;48.20;;;;;;6184978;23;20036;-89
2021/07/23 09:55:49;;;;;;;12.35;8.40;;;34.20;48.10;;;;;;6188807;23;20397;-90
2021/07/23 09:58:41;;;;;;;12.80;7.72;;;34.30;46.70;;;;;;6191118;23;20087;-88
2021/07/23 10:01:35;;;;;;;12.50;8.20;;;34.60;46.40;;;;;;6188596;23;20204;-90
2021/07/23 10:04:58;;;;;;;12.77;7.95;;;33.90;45.60;;;;;;6183335;23;20029;-86
2021/07/23 10:07:58;;;;;;;8.65;7.18;;;33.90;46.00;;;;;;6184532;23;20021;-90
2021/07/23 10:10:56;;;;;;;9.52;7.47;;;34.10;47.20;;;;;;6192549;23;20021;-93
2021/07/23 10:14:41;;;;;;;11.23;7.80;;;34.50;45.80;;;;;;6190004;23;20041;-93
2021/07/23 10:17:40;;;;;;;11.55;7.55;;;34.30;45.50;;;;;;6196846;23;20032;-90
2021/07/23 10:21:31;;;;;;;14.65;8.40;;;34.00;45.60;;;;;;6198001;23;20025;-93
2021/07/23 10:24:30;;;;;;;14.05;8.15;;;34.00;45.70;;;;;;6173907;23;20028;-91
2021/07/23 10:31:37;;;;;;;;;;;;;;;;;;;;;
2021/07/23 10:38:22;;;;;;;9.45;8.23;;;34.70;42.50;;;;;;6231054;22;20029;-91
2021/07/23 10:41:18;;;;;;;12.38;8.68;;;34.90;42.00;;;;;;6225553;23;20033;-88
2021/07/23 10:44:28;;;;;;;11.10;8.32;;;33.90;43.10;;;;;;6212639;23;20027;-92
2021/07/23 10:47:43;;;;;;;11.07;8.15;;;33.60;43.10;;;;;;6224437;23;20116;-92
2021/07/23 10:50:40;;;;;;;12.40;8.05;;;33.90;44.00;;;;;;6228512;23;20269;-91
2021/07/23 10:53:38;;;;;;;10.93;7.90;;;34.50;42.50;;;;;;6230370;23;20024;-91
2021/07/23 10:57:10;;;;;;;;;;;;;;;;;;;;;
2021/07/23 11:00:48;;;;;;;;;;;;;;;;;;;;;
2021/07/23 11:04:12;;;;;;;;;;;;;;;;;;;;;
2021/07/23 11:07:26;;;;;;;13.40;8.57;;;35.30;42.80;;;;;;6217972;23;20044;-91
2021/07/23 11:10:21;;;;;;;10.57;8.55;;;35.00;43.50;;;;;;6196332;23;20028;-91
2021/07/23 11:13:17;;;;;;;13.75;8.68;;;35.50;43.50;;;;;;6216936;23;20087;-92
2021/07/23 11:16:11;;;;;;;10.07;8.05;;;35.70;42.30;;;;;;6215038;23;20031;-92
2021/07/23 11:19:02;;;;;;;10.73;8.00;;;36.20;43.10;;;;;;6216813;23;20126;-92
2021/07/23 11:22:23;;;;;;;10.73;7.90;;;36.50;42.30;;;;;;6187070;23;20385;-91
2021/07/23 11:25:21;;;;;;;12.23;8.52;;;36.10;41.80;;;;;;6200238;23;20025;-91
2021/07/23 11:28:11;;;;;;;11.10;8.27;;;35.40;41.60;;;;;;6213851;23;20012;-91
2021/07/23 11:30:59;;;;;;;11.50;8.20;;;35.60;42.80;;;;;;6231338;23;20039;-91
2021/07/23 11:33:59;;;;;;;10.32;7.97;;;35.10;42.00;;;;;;6196886;23;20412;-93
2021/07/23 11:37:11;;;;;;;12.50;8.55;;;35.60;42.60;;;;;;6198454;23;20031;-91
2021/07/23 11:40:04;;;;;;;10.45;8.18;;;36.50;41.10;;;;;;6196678;23;20024;-89
2021/07/23 11:43:01;;;;;;;12.18;7.75;;;36.20;38.00;;;;;;6195046;23;20123;-91
2021/07/23 11:45:56;;;;;;;11.25;8.50;;;36.10;40.50;;;;;;6199853;23;20339;-92
2021/07/23 11:48:54;;;;;;;8.77;7.72;;;36.80;41.30;;;;;;6197306;23;20024;-91
2021/07/23 11:51:48;;;;;;;8.68;7.78;;;37.30;39.10;;;;;;6194899;23;20024;-91
2021/07/23 11:55:03;;;;;;;10.10;8.27;;;38.30;37.80;;;;;;6218677;23;20292;-91
2021/07/23 11:58:28;;;;;;;10.32;8.02;;;38.60;35.50;;;;;;6085035;23;20074;-93
2021/07/23 12:01:28;;;;;;;10.88;7.68;;;39.50;33.40;;;;;;6079868;23;20105;-94
2021/07/23 12:04:41;;;;;;;;;;;;;;;;;;;;;
2021/07/23 12:07:31;;;;;;;8.82;7.82;;;39.10;35.00;;;;;;6077526;23;20538;-87
2021/07/23 12:10:18;;;;;;;10.32;8.18;;;38.90;35.00;;;;;;6090565;23;20026;-89
2021/07/23 12:13:10;;;;;;;9.88;8.13;;;38.30;34.50;;;;;;6088975;23;20030;-88
2021/07/23 12:15:58;;;;;;;9.07;7.65;;;38.10;35.10;;;;;;6165240;23;20021;-87
2021/07/23 12:19:04;;;;;;;11.52;7.80;;;38.30;35.50;;;;;;6213880;23;20029;-88
2021/07/23 12:22:14;;;;;;;8.38;7.55;;;38.10;38.20;;;;;;6190813;23;20448;-87
2021/07/23 12:25:18;;;;;;;8.48;7.40;;;38.40;35.00;;;;;;6212282;23;20103;-90
2021/07/23 12:28:12;;;;;;;9.65;7.80;;;38.60;34.60;;;;;;6193131;23;20024;-90
2021/07/23 12:31:01;;;;;;;12.40;7.47;;;38.90;33.80;;;;;;6214039;23;20028;-89
2021/07/23 12:34:08;;;;;;;10.50;8.50;;;39.20;34.40;;;;;;6193037;23;20017;-88
2021/07/23 12:36:55;;;;;;;10.13;8.07;;;38.20;32.80;;;;;;6195083;23;20502;-87
2021/07/23 12:40:00;;;;;;;10.25;8.50;;;37.40;35.20;;;;;;6212834;23;20103;-90
2021/07/23 12:43:07;;;;;;;9.25;8.32;;;36.20;36.10;;;;;;6193032;23;20040;-86
2021/07/23 12:45:56;;;;;;;9.57;7.95;;;36.30;36.60;;;;;;6193780;23;20266;-89
2021/07/23 12:48:43;;;;;;;10.63;7.97;;;37.00;34.90;;;;;;6193718;23;20021;-87
2021/07/23 12:51:33;;;;;;;11.93;8.30;;;37.60;37.80;;;;;;6192832;23;20024;-86
2021/07/23 12:54:35;;;;;;;10.70;7.78;;;38.60;37.20;;;;;;6215858;23;20025;-87
2021/07/23 12:57:31;;;;;;;9.82;7.85;;;39.60;35.40;;;;;;6217373;23;20024;-86
2021/07/23 13:00:25;;;;;;;8.07;7.22;;;40.70;31.20;;;;;;6215930;23;20087;-86
2021/07/23 13:03:15;;;;;;;11.40;7.55;;;41.00;29.40;;;;;;6214912;23;20466;-88
2021/07/23 13:06:06;;;;;;;9.95;7.93;;;40.80;31.80;;;;;;6213040;23;20119;-89
2021/07/23 13:08:53;;;;;;;10.10;8.35;;;38.80;30.10;;;;;;6193953;23;20039;-90
2021/07/23 13:11:40;;;;;;;9.73;8.30;;;36.10;34.20;;;;;;6192478;23;20056;-92
2021/07/23 13:14:28;;;;;;;12.10;8.18;;;35.30;36.30;;;;;;6217534;23;20025;-90
2021/07/23 13:17:16;;;;;;;11.07;9.18;;;34.80;39.10;;;;;;6214587;23;20685;-88
2021/07/23 13:20:07;;;;;;;10.50;8.18;;;34.70;40.10;;;;;;6221202;23;20028;-92
2021/07/23 13:22:54;;;;;;;10.73;9.00;;;35.90;38.60;;;;;;6223147;23;20024;-92
2021/07/23 13:25:41;;;;;;;8.75;7.80;;;36.70;37.20;;;;;;6196782;23;20024;-92
2021/07/23 13:28:30;;;;;;;9.45;8.30;;;37.20;35.30;;;;;;6198516;23;20071;-90
2021/07/23 13:31:17;;;;;;;14.20;8.25;;;37.70;35.00;;;;;;6215002;23;20167;-92
2021/07/23 13:34:06;;;;;;;9.30;8.18;;;38.00;35.40;;;;;;6215092;23;20036;-90
2021/07/23 13:37:09;;;;;;;9.75;8.63;;;37.70;33.70;;;;;;6188869;23;20032;-90
2021/07/23 13:40:06;;;;;;;11.50;8.55;;;38.00;32.60;;;;;;6193379;23;20040;-89
2021/07/23 13:43:06;;;;;;;11.68;8.25;;;38.60;33.30;;;;;;6190643;23;20490;-91
2021/07/23 13:45:53;;;;;;;9.15;8.30;;;38.60;31.70;;;;;;6188578;23;20025;-91
2021/07/23 13:48:46;;;;;;;13.60;8.82;;;38.00;31.00;;;;;;6187855;23;20031;-90
2021/07/23 13:51:47;;;;;;;9.82;8.20;;;37.50;32.60;;;;;;6189499;23;20186;-91
2021/07/23 13:54:46;;;;;;;11.77;8.43;;;37.80;34.30;;;;;;6189348;23;20017;-91
2021/07/23 13:57:38;;;;;;;11.10;8.57;;;37.90;32.00;;;;;;6191366;23;20025;-91
2021/07/23 14:00:25;;;;;;;10.80;8.23;;;38.60;31.70;;;;;;6190223;23;20025;-91
2021/07/23 14:03:19;;;;;;;10.02;8.00;;;39.10;30.80;;;;;;6194370;23;20474;-90
2021/07/23 14:06:16;;;;;;;;;;;38.70;31.00;;;;;;6191015;23;20109;-91
2021/07/23 14:09:03;;;;;;;9.25;7.90;;;38.40;31.10;;;;;;6187942;23;19916;-91
2021/07/23 14:12:03;;;;;;;9.38;8.48;;;38.00;31.60;;;;;;6186735;23;20404;-90
2021/07/23 14:14:53;;;;;;;10.38;8.15;;;37.50;33.20;;;;;;6189164;23;20052;-92
2021/07/23 14:17:41;;;;;;;9.10;7.90;;;37.00;33.30;;;;;;6187047;23;20017;-92
2021/07/23 14:20:29;;;;;;;10.05;7.72;;;36.80;33.70;;;;;;6187047;23;20028;-90
2021/07/23 14:26:38;;;;;;;9.07;8.00;;;37.60;34.00;;;;;;6169688;23;20029;-91
2021/07/23 14:29:28;;;;;;;9.52;8.52;;;38.00;33.60;;;;;;6184576;23;20033;-92
2021/07/23 14:32:26;;;;;;;9.57;8.10;;;38.30;32.80;;;;;;6201602;23;20094;-92
2021/07/23 14:35:17;;;;;;;14.82;9.10;;;38.00;33.30;;;;;;6189029;23;20040;-91
2021/07/23 14:38:07;;;;;;;15.98;9.00;;;37.30;33.50;;;;;;6170450;23;20080;-92
2021/07/23 14:41:22;;;;;;;;;;;;;;;;;;;;;
2021/07/23 14:44:26;;;;;;;13.18;8.60;;;37.20;32.80;;;;;;6189465;23;20070;-90
2021/07/23 14:47:13;;;;;;;12.40;9.00;;;37.60;34.00;;;;;;6191859;23;20088;-92
2021/07/23 14:50:04;;;;;;;11.68;8.27;;;37.30;33.50;;;;;;6167761;23;20104;-93
2021/07/23 14:57:07;;;;;;;;;;;;;;;;;;;;;
2021/07/23 15:00:28;;;;;;;10.45;8.63;;;37.20;34.20;;;;;;6098325;23;20042;-92
2021/07/23 15:03:31;;;;;;;10.00;8.90;;;37.20;34.30;;;;;;6080902;23;20435;-92
2021/07/23 15:06:38;;;;;;;10.80;8.45;;;37.10;35.10;;;;;;6098751;23;20346;-92
2021/07/23 15:13:54;;;;;;;9.52;8.13;;;36.90;37.10;;;;;;5938510;24;20940;-93
2021/07/23 15:16:52;;;;;;;;;;;;;;;;;;;;;
2021/07/23 15:19:48;;;;;;;9.50;8.50;;;37.40;36.50;;;;;;6082449;23;20056;-93
2021/07/23 15:23:40;;;;;;;;;;;;;;;;;;;;;
2021/07/23 15:27:13;;;;;;;9.32;8.25;;;37.10;35.70;;;;;;6100384;23;20018;-92
2021/07/23 15:30:02;;;;;;;9.75;8.48;;;37.00;36.00;;;;;;6122760;23;20069;-91
2021/07/23 15:32:53;;;;;;;11.55;8.75;;;36.60;34.60;;;;;;6170391;23;20028;-91
2021/07/23 15:36:04;;;;;;;15.23;8.93;;;36.60;37.40;;;;;;6174998;23;20025;-91
2021/07/23 15:39:52;;;;;;;9.57;8.37;;;36.30;36.50;;;;;;6225686;23;20104;-92
2021/07/23 15:46:28;;;;;;;14.07;8.63;;;34.40;39.10;;;;;;6225019;23;20044;-92
2021/07/23 15:49:30;;;;;;;12.73;9.45;;;33.80;40.00;;;;;;6202879;23;20036;-92
2021/07/23 15:53:09;;;;;;;14.65;9.18;;;33.10;41.10;;;;;;6162316;23;20082;-92
2021/07/23 16:00:15;;;;;;;16.98;8.50;;;33.40;43.00;;;;;;5975766;24;20049;-92
2021/07/23 16:07:46;;;;;;;13.35;8.57;;;33.90;41.00;;;;;;5963780;24;20024;-93
2021/07/23 16:11:01;;;;;;;13.38;9.45;;;33.80;40.80;;;;;;5944227;24;20120;-92
2021/07/23 16:14:42;;;;;;;11.73;9.10;;;33.20;41.10;;;;;;5963148;24;20054;-92
2021/07/23 16:18:24;;;;;;;13.25;9.15;;;32.60;42.60;;;;;;5988252;23;20060;-92
2021/07/23 16:21:41;;;;;;;10.05;8.88;;;32.30;43.70;;;;;;6190734;23;20048;-93
2021/07/23 16:25:31;;;;;;;12.50;9.23;;;32.00;43.90;;;;;;6226433;23;20136;-92
2021/07/23 16:37:00;;;;;;;10.15;9.15;;;30.60;47.90;;;;;;6107784;23;20033;-92
2021/07/23 16:43:48;;;;;;;13.77;9.80;;;30.50;47.70;;;;;;6219407;23;20016;-92
2021/07/23 16:47:41;;;;;;;12.50;10.00;;;30.40;47.90;;;;;;6199558;23;20103;-92
2021/07/23 16:51:10;;;;;;;;;;;30.00;48.50;;;;;;5988601;23;20305;-92
2021/07/23 16:58:44;;;;;;;12.23;8.95;;;29.40;50.50;;;;;;5938709;23;20246;-91